Time;durP1;ratioP1;P1;durP2;ratioP2;P2;SDS_P1;SDS_P2;PMS_P1;PMS_P2;Temp;Humidity;BMP_temperature;BMP_pressure;BME280_temperature;BME280_humidity;BME280_pressure;Samples;Min_cycle;Max_cycle;Signal;HPM_P1;HPM_P2
2021/03/06 00:02:22;;;;;;;4.87;4.20;;;;;;;0.85;80.80;101743.77;628080;225;32844;-76
2021/03/06 00:04:50;;;;;;;6.00;4.63;;;;;;;0.71;80.92;101744.17;633311;225;24940;-77
2021/03/06 00:07:17;;;;;;;7.10;4.17;;;;;;;0.74;80.06;101747.08;639768;221;24879;-76
2021/03/06 00:09:45;;;;;;;4.90;4.17;;;;;;;0.66;80.25;101756.69;626589;225;24939;-76
2021/03/06 00:12:13;;;;;;;4.90;3.90;;;;;;;0.54;81.29;101756.14;646145;220;24893;-76
2021/03/06 00:14:41;;;;;;;6.22;4.70;;;;;;;0.64;81.28;101757.17;621115;226;43478;-76
2021/03/06 00:17:09;;;;;;;7.23;4.37;;;;;;;0.56;81.38;101755.69;642968;221;23791;-76
2021/03/06 00:19:37;;;;;;;4.47;3.83;;;;;;;0.38;82.07;101761.73;642896;221;24989;-76
2021/03/06 00:22:05;;;;;;;7.63;4.47;;;;;;;0.38;81.80;101757.90;644849;221;24882;-77
2021/03/06 00:24:32;;;;;;;5.90;4.28;;;;;;;0.42;81.82;101763.32;644508;220;43406;-76
2021/03/06 00:27:00;;;;;;;4.97;4.47;;;;;;;0.41;82.23;101757.36;638322;221;24878;-76
2021/03/06 00:29:28;;;;;;;5.92;4.40;;;;;;;0.38;82.74;101774.09;623056;225;32797;-76
2021/03/06 00:31:56;;;;;;;7.10;4.60;;;;;;;0.38;82.85;101768.97;645542;220;43351;-76
2021/03/06 00:34:24;;;;;;;4.97;4.20;;;;;;;0.25;83.35;101767.17;648809;221;23777;-76
2021/03/06 00:36:52;;;;;;;6.42;4.25;;;;;;;0.28;83.34;101762.41;623079;225;32776;-76
2021/03/06 00:39:20;;;;;;;5.45;4.30;;;;;;;0.34;82.79;101749.47;638156;220;32601;-76
2021/03/06 00:41:48;;;;;;;6.43;4.27;;;;;;;0.21;82.22;101757.08;639667;221;23840;-76
2021/03/06 00:44:15;;;;;;;6.00;4.25;;;;;;;0.40;82.11;101744.17;630066;226;32743;-76
2021/03/06 00:46:43;;;;;;;5.67;4.57;;;;;;;0.27;82.28;101745.39;629003;225;24834;-77
2021/03/06 00:49:12;;;;;;;6.10;3.90;;;;;;;0.36;81.25;101745.59;624108;225;32785;-77
2021/03/06 00:51:41;;;;;;;4.43;3.60;;;;;;;0.28;80.59;101742.81;629889;225;23817;-76
2021/03/06 00:54:09;;;;;;;4.50;3.80;;;;;;;0.46;81.07;101750.42;625085;225;34300;-76
2021/03/06 00:56:37;;;;;;;6.78;3.90;;;;;;;0.46;81.29;101750.86;627218;225;32921;-76
2021/03/06 00:59:05;;;;;;;5.57;4.67;;;;;;;0.24;82.40;101759.55;646928;219;25907;-77
2021/03/06 01:01:33;;;;;;;5.78;3.90;;;;;;;0.37;82.40;101751.94;641317;220;32843;-76
2021/03/06 01:04:01;;;;;;;4.63;3.53;;;;;;;0.24;82.42;101759.11;641473;223;25883;-76
2021/03/06 01:06:29;;;;;;;5.28;4.12;;;;;;;0.33;82.84;101756.75;641561;221;32727;-76
2021/03/06 01:08:57;;;;;;;5.67;4.03;;;;;;;0.18;83.16;101754.61;631099;225;24964;-76
2021/03/06 01:11:25;;;;;;;5.80;3.80;;;;;;;0.27;82.52;101751.78;643147;220;32607;-76
2021/03/06 01:13:52;;;;;;;5.93;3.60;;;;;;;0.25;82.01;101747.99;633706;225;23824;-76
2021/03/06 01:16:20;;;;;;;4.90;3.90;;;;;;;0.26;81.65;101737.31;625837;225;32923;-76
2021/03/06 01:18:49;;;;;;;5.70;3.83;;;;;;;0.16;81.69;101736.75;644848;220;23782;-76
2021/03/06 01:21:17;;;;;;;4.60;3.80;;;;;;;0.16;81.96;101735.91;638260;220;32768;-76
2021/03/06 01:23:45;;;;;;;6.03;4.10;;;;;;;0.21;81.39;101733.62;629784;225;33474;-76
2021/03/06 01:26:13;;;;;;;7.90;4.60;;;;;;;0.00;83.50;101739.31;626717;228;23858;-76
2021/03/06 01:28:41;;;;;;;5.40;4.05;;;;;;;0.11;83.71;101741.57;634421;220;33107;-76
2021/03/06 01:31:09;;;;;;;6.20;4.60;;;;;;;-0.11;84.01;101751.53;630478;225;23779;-76
2021/03/06 01:33:36;;;;;;;5.65;4.30;;;;;;;-0.14;84.07;101758.84;631401;225;32927;-75
2021/03/06 01:36:05;;;;;;;4.60;4.03;;;;;;;-0.27;85.13;101760.47;642375;221;23768;-75
2021/03/06 01:38:34;;;;;;;4.97;4.30;;;;;;;-0.18;85.20;101762.34;632835;224;32751;-76
2021/03/06 01:41:02;;;;;;;6.30;4.13;;;;;;;-0.38;86.29;101756.45;643985;220;23747;-75
2021/03/06 01:43:30;;;;;;;5.42;4.08;;;;;;;-0.33;86.00;101760.16;638456;221;32658;-75
2021/03/06 01:45:58;;;;;;;6.30;4.08;;;;;;;-0.29;85.11;101751.53;637286;220;43648;-75
2021/03/06 01:48:25;;;;;;;4.33;3.90;;;;;;;-0.40;86.61;101753.53;640504;224;23763;-75
2021/03/06 01:50:54;;;;;;;5.85;4.40;;;;;;;-0.36;86.01;101756.41;634556;221;32662;-75
2021/03/06 01:53:23;;;;;;;6.57;3.87;;;;;;;-0.47;85.88;101749.00;629239;226;23851;-75
2021/03/06 01:55:50;;;;;;;5.75;4.70;;;;;;;-0.45;86.26;101757.45;624457;225;32751;-75
2021/03/06 01:58:18;;;;;;;5.60;4.30;;;;;;;-0.45;86.26;101757.45;636743;221;32646;-75
2021/03/06 02:00:46;;;;;;;5.67;4.60;;;;;;;-0.50;85.93;101752.91;629343;224;23787;-75
2021/03/06 02:03:14;;;;;;;5.25;4.15;;;;;;;-0.39;86.12;101752.22;632781;224;32626;-75
2021/03/06 02:05:42;;;;;;;8.00;5.33;;;;;;;-0.42;85.70;101745.91;636657;220;32616;-75
2021/03/06 02:08:09;;;;;;;5.60;4.23;;;;;;;-0.46;85.17;101745.56;629517;225;23799;-75
2021/03/06 02:10:38;;;;;;;6.15;4.78;;;;;;;-0.36;84.94;101747.02;639368;219;32677;-75
2021/03/06 02:13:14;;;;;;;6.30;4.30;;;;;;;-0.33;84.89;101749.50;631386;225;33149;-76
2021/03/06 02:15:46;;;;;;;6.67;4.87;;;;;;;-0.33;85.15;101753.33;640571;220;32631;-75
2021/03/06 02:18:16;;;;;;;6.63;4.60;;;;;;;-0.33;85.43;101752.50;628555;225;32814;-75
2021/03/06 02:20:48;;;;;;;6.83;5.07;;;;;;;-0.52;85.45;101748.28;631671;226;25404;-75
2021/03/06 02:23:41;;;;;;;6.33;4.57;;;;;;;-0.50;85.68;101753.34;638095;220;32659;-76
2021/03/06 02:26:22;;;;;;;5.60;4.90;;;;;;;-0.57;86.89;101748.80;634148;220;36701;-75
2021/03/06 02:28:50;;;;;;;7.03;6.30;;;;;;;-0.77;87.47;101750.55;642728;220;23766;-75
2021/03/06 02:31:18;;;;;;;6.42;4.87;;;;;;;-0.61;86.68;101742.94;628341;225;32819;-75
2021/03/06 02:33:46;;;;;;;6.20;5.07;;;;;;;-0.57;87.13;101742.42;627840;225;32819;-76
2021/03/06 02:36:14;;;;;;;6.28;4.60;;;;;;;-0.50;86.51;101741.41;638666;220;32729;-75
2021/03/06 02:38:42;;;;;;;5.27;4.30;;;;;;;-0.58;86.28;101737.34;630717;225;25981;-75
2021/03/06 02:41:10;;;;;;;5.92;4.65;;;;;;;-0.55;85.48;101740.69;638203;220;32692;-75
2021/03/06 02:43:38;;;;;;;4.83;3.80;;;;;;;-0.42;84.70;101737.41;643182;221;32609;-75
2021/03/06 02:46:06;;;;;;;4.67;4.20;;;;;;;-0.52;85.04;101731.67;645906;221;26935;-75
2021/03/06 02:48:34;;;;;;;6.45;4.20;;;;;;;-0.53;84.90;101726.60;640675;220;32703;-75
2021/03/06 02:51:02;;;;;;;6.05;4.60;;;;;;;-0.53;85.14;101730.44;624148;225;32864;-75
2021/03/06 02:53:30;;;;;;;5.07;4.40;;;;;;;-0.64;86.09;101737.91;626479;225;29314;-75
2021/03/06 02:55:58;;;;;;;5.62;4.70;;;;;;;-0.57;85.14;101728.80;639873;220;32697;-75
2021/03/06 02:58:31;;;;;;;4.80;4.28;;;;;;;-0.49;84.55;101722.64;628630;226;43446;-75
2021/03/06 03:01:01;;;;;;;5.17;3.90;;;;;;;-0.64;85.25;101734.52;637923;225;26923;-75
2021/03/06 03:03:34;;;;;;;5.80;4.20;;;;;;;-0.60;84.79;101728.01;620989;225;32941;-75
2021/03/06 03:06:08;;;;;;;5.35;4.33;;;;;;;-0.50;84.62;101729.08;638180;220;32872;-75
2021/03/06 03:08:37;;;;;;;6.50;4.47;;;;;;;-0.63;84.36;101719.14;626175;225;23790;-75
2021/03/06 03:11:06;;;;;;;5.40;4.50;;;;;;;-0.57;84.84;101723.25;636568;220;32783;-75
2021/03/06 03:13:36;;;;;;;5.08;4.33;;;;;;;-0.52;84.47;101722.73;625612;225;32742;-75
2021/03/06 03:16:04;;;;;;;8.37;4.73;;;;;;;-0.63;84.71;101724.25;647240;221;23783;-75
2021/03/06 03:18:33;;;;;;;6.30;4.30;;;;;;;-0.57;84.35;101727.09;621645;225;32815;-75
2021/03/06 03:21:00;;;;;;;7.83;4.42;;;;;;;-0.56;84.01;101727.92;640927;220;32956;-76
2021/03/06 03:23:29;;;;;;;5.97;4.20;;;;;;;-0.55;83.88;101724.52;627706;225;32817;-76
2021/03/06 03:25:57;;;;;;;4.70;4.10;;;;;;;-0.70;85.43;101726.57;647016;221;26036;-75
2021/03/06 03:28:25;;;;;;;5.17;4.37;;;;;;;-0.68;84.79;101736.31;627857;225;32839;-75
2021/03/06 03:30:53;;;;;;;5.30;4.00;;;;;;;-0.67;84.40;101733.31;627209;225;32759;-75
2021/03/06 03:33:21;;;;;;;7.90;4.43;;;;;;;-0.82;84.81;101734.52;627915;225;23796;-75
2021/03/06 03:35:49;;;;;;;4.25;3.85;;;;;;;-0.68;83.58;101723.53;639895;220;32801;-75
2021/03/06 03:38:17;;;;;;;5.77;4.07;;;;;;;-0.72;84.21;101724.46;641821;221;23806;-74
2021/03/06 03:40:45;;;;;;;6.90;4.10;;;;;;;-0.70;84.25;101727.84;631144;224;32678;-75
2021/03/06 03:43:12;;;;;;;4.67;4.17;;;;;;;-0.64;84.43;101721.73;645875;220;32915;-75
2021/03/06 03:45:40;;;;;;;5.00;4.00;;;;;;;-0.81;84.37;101734.91;633634;225;23791;-75
2021/03/06 03:48:09;;;;;;;6.78;4.30;;;;;;;-0.73;84.04;101727.89;625491;226;32648;-75
2021/03/06 03:50:37;;;;;;;6.35;3.83;;;;;;;-0.64;82.99;101728.97;632294;225;32518;-75
2021/03/06 03:53:05;;;;;;;4.93;3.57;;;;;;;-0.75;82.95;101719.88;628792;226;24920;-75
2021/03/06 03:55:33;;;;;;;6.60;4.30;;;;;;;-0.69;83.88;101724.85;626904;226;32899;-75
2021/03/06 03:58:01;;;;;;;4.70;4.10;;;;;;;-0.76;84.54;101721.59;635316;221;32640;-75
2021/03/06 04:00:29;;;;;;;5.53;4.13;;;;;;;-0.76;83.88;101720.75;642047;221;25897;-75
2021/03/06 04:02:57;;;;;;;5.28;3.75;;;;;;;-0.68;83.72;101726.53;635352;221;32685;-75
2021/03/06 04:05:25;;;;;;;4.37;3.58;;;;;;;-0.66;83.46;101727.33;638554;222;32698;-75
2021/03/06 04:07:53;;;;;;;4.40;3.90;;;;;;;-0.79;83.54;101726.77;631086;225;23790;-75
2021/03/06 04:10:21;;;;;;;6.67;3.90;;;;;;;-0.85;83.94;101734.55;635167;219;32889;-75
2021/03/06 04:12:49;;;;;;;4.80;3.80;;;;;;;-0.78;83.56;101737.83;626517;225;32771;-75
2021/03/06 04:15:17;;;;;;;4.67;3.63;;;;;;;-0.93;83.46;101736.02;627389;226;23788;-75
2021/03/06 04:17:45;;;;;;;4.60;3.80;;;;;;;-0.83;83.53;101733.27;639960;220;32797;-75
2021/03/06 04:20:14;;;;;;;4.80;3.80;;;;;;;-0.84;83.54;101738.82;645365;220;43398;-75
2021/03/06 04:22:42;;;;;;;7.17;4.43;;;;;;;-0.89;83.54;101750.83;629641;225;24932;-75
2021/03/06 04:25:11;;;;;;;5.67;4.00;;;;;;;-0.82;83.26;101742.61;639314;220;32631;-75
2021/03/06 04:27:39;;;;;;;5.67;3.93;;;;;;;-0.83;83.38;101754.54;640474;220;43395;-75
2021/03/06 04:30:08;;;;;;;10.00;4.70;;;;;;;-0.91;83.54;101748.75;644397;220;24909;-75
2021/03/06 04:32:36;;;;;;;4.65;3.92;;;;;;;-0.91;83.32;101753.86;628489;225;32803;-75
2021/03/06 04:35:04;;;;;;;6.20;4.20;;;;;;;-0.77;82.60;101747.16;634692;220;32687;-75
2021/03/06 04:37:32;;;;;;;4.60;3.70;;;;;;;-0.91;82.99;101755.14;638738;221;23936;-75
2021/03/06 04:40:00;;;;;;;5.25;4.08;;;;;;;-0.84;82.96;101754.58;641463;220;32963;-75
2021/03/06 04:42:28;;;;;;;4.97;3.80;;;;;;;-0.70;81.58;101744.45;634100;222;32718;-75
2021/03/06 04:44:56;;;;;;;3.60;3.30;;;;;;;-0.82;81.51;101741.33;640564;221;23765;-74
2021/03/06 04:47:24;;;;;;;5.90;4.30;;;;;;;-0.77;82.20;101745.45;633969;221;32724;-75
2021/03/06 04:49:52;;;;;;;4.87;4.25;;;;;;;-0.86;82.28;101754.58;636615;221;32851;-75
2021/03/06 04:52:20;;;;;;;5.50;3.57;;;;;;;-0.92;82.18;101753.02;648046;221;23826;-75
2021/03/06 04:54:48;;;;;;;8.83;4.60;;;;;;;-0.80;81.58;101755.74;639905;220;32771;-75
2021/03/06 04:57:15;;;;;;;4.90;4.10;;;;;;;-0.83;81.90;101746.04;623294;225;32780;-75
2021/03/06 04:59:43;;;;;;;6.58;4.60;;;;;;;-0.83;82.55;101752.42;624921;225;32908;-75
2021/03/06 05:02:11;;;;;;;7.67;4.33;;;;;;;-0.98;82.80;101759.98;639129;224;23750;-75
2021/03/06 05:04:41;;;;;;;6.08;4.20;;;;;;;-0.87;82.67;101754.19;637011;220;32662;-76
2021/03/06 05:07:07;;;;;;;4.87;4.00;;;;;;;-0.86;82.89;101750.75;621986;226;32792;-75
2021/03/06 05:09:35;;;;;;;6.07;4.60;;;;;;;-0.94;82.26;101752.66;630943;226;23766;-75
2021/03/06 05:12:03;;;;;;;5.72;4.33;;;;;;;-0.84;81.49;101740.53;626944;225;32868;-75
2021/03/06 05:14:31;;;;;;;5.80;4.00;;;;;;;-0.95;82.26;101739.05;645115;221;23821;-75
2021/03/06 05:16:59;;;;;;;5.90;4.10;;;;;;;-0.86;81.08;101738.42;638571;220;33251;-75
2021/03/06 05:19:27;;;;;;;5.42;3.80;;;;;;;-0.73;80.96;101734.28;624761;226;32844;-75
2021/03/06 05:21:55;;;;;;;4.30;3.83;;;;;;;-0.96;81.71;101740.36;647481;220;23778;-75
2021/03/06 05:24:23;;;;;;;6.70;4.30;;;;;;;-0.82;81.88;101751.11;638987;221;32696;-75
2021/03/06 05:27:01;;;;;;;5.95;3.70;;;;;;;-0.71;81.15;101747.84;625270;225;32805;-75
2021/03/06 05:29:19;;;;;;;7.23;4.03;;;;;;;-0.86;81.09;101744.81;636275;225;25904;-75
2021/03/06 05:31:47;;;;;;;5.28;3.80;;;;;;;-0.90;81.71;101741.49;627122;225;32812;-75
2021/03/06 05:34:15;;;;;;;5.60;3.63;;;;;;;-0.97;82.63;101745.08;628284;225;23887;-75
2021/03/06 05:36:43;;;;;;;5.50;3.90;;;;;;;-0.92;80.60;101749.63;623762;225;32774;-75
2021/03/06 05:39:11;;;;;;;5.30;3.75;;;;;;;-0.76;80.49;101737.34;638490;221;32705;-75
2021/03/06 05:41:39;;;;;;;5.17;4.10;;;;;;;-0.89;80.90;101738.06;631533;225;23790;-75
2021/03/06 05:44:07;;;;;;;3.80;3.40;;;;;;;-0.78;80.82;101736.55;626114;225;32810;-75
2021/03/06 05:46:35;;;;;;;5.87;3.23;;;;;;;-0.93;81.82;101740.30;627426;226;23782;-75
2021/03/06 05:49:03;;;;;;;5.28;3.90;;;;;;;-0.90;81.25;101742.33;634681;220;32922;-75
2021/03/06 05:51:32;;;;;;;4.72;3.60;;;;;;;-0.78;80.84;101738.66;622387;226;33150;-75
2021/03/06 05:54:00;;;;;;;6.40;5.40;;;;;;;-0.86;80.73;101745.64;644624;222;23829;-75
2021/03/06 05:56:28;;;;;;;5.30;3.67;;;;;;;-0.81;79.55;101745.13;640484;220;32837;-75
2021/03/06 05:58:56;;;;;;;5.85;3.60;;;;;;;-0.77;79.52;101748.00;638873;221;32960;-75
2021/03/06 06:01:24;;;;;;;11.43;3.90;;;;;;;-0.85;80.52;101747.77;649168;221;26927;-75
2021/03/06 06:03:52;;;;;;;5.50;4.12;;;;;;;-0.74;79.99;101741.98;625242;225;32826;-75
2021/03/06 06:06:19;;;;;;;5.20;3.22;;;;;;;-0.65;79.37;101744.33;636509;220;32798;-75
2021/03/06 06:08:47;;;;;;;4.30;3.13;;;;;;;-0.73;79.74;101743.66;632028;225;23806;-75
2021/03/06 06:11:15;;;;;;;4.97;3.65;;;;;;;-0.70;79.66;101743.17;623262;225;32842;-75
2021/03/06 06:13:43;;;;;;;5.17;3.95;;;;;;;-0.69;80.08;101742.30;642178;220;32756;-77
2021/03/06 06:16:11;;;;;;;4.97;4.00;;;;;;;-0.86;80.11;101745.64;641611;222;23756;-76
2021/03/06 06:18:39;;;;;;;5.10;3.80;;;;;;;-0.63;80.00;101751.52;633011;221;32953;-75
2021/03/06 06:21:08;;;;;;;4.50;3.47;;;;;;;-0.86;81.86;101758.85;644788;221;23768;-74
2021/03/06 06:23:36;;;;;;;6.00;3.70;;;;;;;-0.80;81.63;101763.84;642775;221;32990;-75
2021/03/06 06:26:11;;;;;;;5.70;3.85;;;;;;;-0.83;81.32;101758.81;626591;225;32854;-75
2021/03/06 06:28:48;;;;;;;4.13;3.63;;;;;;;-0.97;81.84;101765.06;633101;225;23792;-75
2021/03/06 06:31:16;;;;;;;4.72;4.00;;;;;;;-0.88;82.47;101764.00;634315;221;33016;-75
2021/03/06 06:33:44;;;;;;;5.90;3.80;;;;;;;-0.84;82.37;101770.73;641848;221;32620;-75
2021/03/06 06:36:30;;;;;;;5.00;4.03;;;;;;;-0.81;81.95;101778.77;646152;221;24848;-75
2021/03/06 06:38:57;;;;;;;5.20;3.70;;;;;;;-0.55;80.97;101773.06;642975;221;32943;-75
2021/03/06 06:41:25;;;;;;;5.93;3.37;;;;;;;-0.64;80.49;101776.66;627350;227;23789;-75
2021/03/06 06:43:53;;;;;;;4.00;3.30;;;;;;;-0.47;79.67;101771.99;625861;225;33044;-75
2021/03/06 06:46:29;;;;;;;4.10;3.70;;;;;;;-0.45;80.44;101777.06;632289;224;23788;-75
2021/03/06 06:48:57;;;;;;;3.92;3.35;;;;;;;-0.33;79.73;101773.78;634462;220;32849;-75
2021/03/06 06:51:26;;;;;;;5.17;3.42;;;;;;;-0.21;79.14;101775.64;624795;225;32934;-75
2021/03/06 06:54:09;;;;;;;5.07;3.47;;;;;;;-0.24;79.54;101773.17;633734;225;23810;-74
2021/03/06 06:56:37;;;;;;;5.42;4.05;;;;;;;-0.11;80.34;101773.27;638745;221;32934;-74
2021/03/06 06:59:06;;;;;;;5.30;4.03;;;;;;;-0.18;80.17;101779.39;644073;221;23767;-74
2021/03/06 07:01:33;;;;;;;6.20;3.70;;;;;;;-0.05;79.51;101770.10;623662;226;32797;-75
2021/03/06 07:04:02;;;;;;;5.20;3.13;;;;;;;-0.10;78.58;101777.06;626996;226;23807;-75
2021/03/06 07:06:30;;;;;;;4.60;3.80;;;;;;;-0.05;78.78;101776.49;643746;221;24923;-75
2021/03/06 07:09:08;;;;;;;6.43;3.70;;;;;;;-0.07;78.07;101783.81;641781;221;24915;-75
2021/03/06 07:11:36;;;;;;;5.75;3.83;;;;;;;0.06;77.98;101783.90;632412;221;32817;-75
2021/03/06 07:14:04;;;;;;;6.37;3.50;;;;;;;0.13;77.34;101778.17;649661;221;23845;-75
2021/03/06 07:16:56;;;;;;;5.05;3.20;;;;;;;0.23;77.40;101775.34;639638;221;32894;-75
2021/03/06 07:19:25;;;;;;;3.90;3.60;;;;;;;0.14;78.42;101779.84;643467;221;23800;-75
2021/03/06 07:21:53;;;;;;;5.10;3.58;;;;;;;0.24;77.86;101775.73;643642;221;32766;-75
2021/03/06 07:24:20;;;;;;;4.13;3.30;;;;;;;0.38;76.79;101784.77;648816;221;23789;-75
2021/03/06 07:26:51;;;;;;;3.30;3.00;;;;;;;0.52;76.44;101775.83;644105;221;26029;-75
2021/03/06 07:29:18;;;;;;;4.33;2.80;;;;;;;0.68;75.75;101780.52;636568;220;33088;-75
2021/03/06 07:31:46;;;;;;;3.80;3.43;;;;;;;0.79;76.22;101783.62;648652;221;24880;-75
2021/03/06 07:34:14;;;;;;;4.08;2.58;;;;;;;0.92;74.81;101782.83;621829;226;32834;-75
2021/03/06 07:36:41;;;;;;;5.17;3.10;;;;;;;0.95;75.45;101781.00;629723;225;23813;-75
2021/03/06 07:39:09;;;;;;;5.30;3.00;;;;;;;0.97;73.96;101778.39;648853;219;24962;-75
2021/03/06 07:41:39;;;;;;;4.10;3.47;;;;;;;1.02;75.12;101778.67;638125;223;25289;-75
2021/03/06 07:44:08;;;;;;;3.60;3.23;;;;;;;1.17;74.59;101785.06;641992;221;24877;-76
2021/03/06 07:46:38;;;;;;;3.20;2.77;;;;;;;1.15;74.36;101781.27;640017;220;25193;-75
2021/03/06 07:49:10;;;;;;;5.00;3.40;;;;;;;1.36;74.04;101785.33;624611;225;32807;-75
2021/03/06 07:51:38;;;;;;;4.50;3.30;;;;;;;1.33;73.66;101779.02;640366;221;23812;-75
2021/03/06 07:54:06;;;;;;;3.83;2.97;;;;;;;1.36;72.87;101773.35;642847;221;24889;-76
2021/03/06 07:56:34;;;;;;;2.80;2.60;;;;;;;1.37;72.32;101769.06;640741;222;24924;-75
2021/03/06 07:59:02;;;;;;;4.42;3.22;;;;;;;1.60;72.70;101774.31;636618;221;32668;-73
2021/03/06 08:01:31;;;;;;;3.50;3.20;;;;;;;1.70;72.31;101780.83;635201;221;32706;-75
2021/03/06 08:03:59;;;;;;;4.00;3.23;;;;;;;1.66;71.69;101775.83;643871;220;23792;-75
2021/03/06 08:06:28;;;;;;;5.13;3.30;;;;;;;1.68;72.46;101779.17;643968;220;24923;-76
2021/03/06 08:08:58;;;;;;;4.30;3.30;;;;;;;1.93;70.94;101771.52;634197;220;44159;-78
2021/03/06 08:11:26;;;;;;;6.23;3.00;;;;;;;1.76;71.12;101775.48;644464;220;24917;-74
2021/03/06 08:13:54;;;;;;;3.20;2.90;;;;;;;1.85;70.01;101765.83;630566;225;24948;-74
2021/03/06 08:16:33;;;;;;;5.10;3.17;;;;;;;1.93;69.59;101770.23;632574;225;24953;-75
2021/03/06 08:19:01;;;;;;;3.23;2.73;;;;;;;2.01;69.65;101769.10;631404;225;24958;-74
2021/03/06 08:21:29;;;;;;;5.90;3.30;;;;;;;1.91;69.00;101765.61;639145;221;24973;-75
2021/03/06 08:24:07;;;;;;;3.50;3.17;;;;;;;1.98;70.56;101771.78;637391;225;25411;-74
2021/03/06 08:26:35;;;;;;;3.30;2.92;;;;;;;2.31;69.60;101773.63;636769;221;32753;-74
2021/03/06 08:29:28;;;;;;;3.50;3.20;;;;;;;2.13;67.09;101764.00;626997;225;23867;-74
2021/03/06 08:31:55;;;;;;;3.13;2.90;;;;;;;2.12;67.39;101753.34;628249;225;24974;-75
2021/03/06 08:34:29;;;;;;;5.57;3.57;;;;;;;2.11;66.57;101743.95;633248;225;24955;-74
2021/03/06 08:37:07;;;;;;;4.57;4.10;;;;;;;2.35;68.23;101752.08;649861;220;25170;-74
2021/03/06 08:39:35;;;;;;;4.70;3.80;;;;;;;2.57;66.67;101750.03;624577;225;32957;-74
2021/03/06 08:42:03;;;;;;;4.80;4.30;;;;;;;2.81;68.63;101749.55;636125;225;23806;-74
2021/03/06 08:44:31;;;;;;;4.83;3.70;;;;;;;2.97;68.48;101752.80;644117;221;24944;-76
2021/03/06 08:46:59;;;;;;;4.63;3.30;;;;;;;2.92;67.64;101749.55;644592;221;25182;-76
2021/03/06 08:49:27;;;;;;;4.10;3.40;;;;;;;3.01;67.29;101745.80;632713;225;24925;-76
2021/03/06 08:51:56;;;;;;;4.50;3.00;;;;;;;3.01;66.51;101747.08;627920;225;24933;-77
2021/03/06 08:54:24;;;;;;;6.83;3.90;;;;;;;2.98;66.28;101738.21;648059;220;24908;-74
2021/03/06 08:56:51;;;;;;;3.43;3.00;;;;;;;3.14;66.46;101741.02;639604;221;24945;-74
2021/03/06 08:59:19;;;;;;;3.20;3.00;;;;;;;3.10;66.00;101737.74;635201;225;24982;-74
2021/03/06 09:01:47;;;;;;;3.37;2.90;;;;;;;3.22;65.17;101730.81;645098;220;28119;-74
2021/03/06 09:04:15;;;;;;;4.30;3.37;;;;;;;3.38;67.91;101732.77;626020;225;24936;-74
2021/03/06 09:06:43;;;;;;;4.87;3.43;;;;;;;3.52;65.46;101733.91;632143;225;24950;-76
2021/03/06 09:09:11;;;;;;;2.73;2.50;;;;;;;3.40;63.99;101723.28;629020;224;25087;-77
2021/03/06 09:11:52;;;;;;;4.03;3.37;;;;;;;3.48;64.55;101713.51;639824;221;24968;-76
2021/03/06 09:14:20;;;;;;;6.10;3.30;;;;;;;3.57;63.14;101716.55;632254;225;25404;-74
2021/03/06 09:16:48;;;;;;;5.60;3.62;;;;;;;3.71;64.44;101712.57;641177;220;32778;-74
2021/03/06 09:19:23;;;;;;;3.80;3.27;;;;;;;3.64;64.02;101700.84;632291;224;23782;-74
2021/03/06 09:22:00;;;;;;;7.00;3.53;;;;;;;3.75;65.24;101712.37;639855;221;24915;-74
2021/03/06 09:24:43;;;;;;;3.50;3.17;;;;;;;3.70;63.55;101709.61;636562;226;24924;-74
2021/03/06 09:27:11;;;;;;;5.90;3.23;;;;;;;3.84;63.43;101691.41;641597;223;27036;-75
2021/03/06 09:29:39;;;;;;;4.80;3.10;;;;;;;3.92;63.02;101703.92;639605;221;24914;-74
2021/03/06 09:32:08;;;;;;;4.80;3.20;;;;;;;3.92;62.51;101697.49;645100;221;24969;-74
2021/03/06 09:34:36;;;;;;;4.90;3.30;;;;;;;4.10;62.55;101698.00;643869;221;24986;-74
2021/03/06 09:37:15;;;;;;;3.63;3.33;;;;;;;4.01;61.78;101694.53;630424;225;24950;-74
2021/03/06 09:39:43;;;;;;;5.07;3.53;;;;;;;4.18;63.42;101699.77;644864;220;24921;-75
2021/03/06 09:42:11;;;;;;;3.83;3.13;;;;;;;4.13;60.63;101690.14;651092;220;27076;-76
2021/03/06 09:44:38;;;;;;;4.23;3.23;;;;;;;4.41;61.67;101687.63;648080;221;24886;-77
2021/03/06 09:47:06;;;;;;;3.53;3.10;;;;;;;4.45;61.99;101683.55;643702;221;24959;-77
2021/03/06 09:49:35;;;;;;;4.03;3.40;;;;;;;4.56;62.60;101668.06;630426;226;32739;-77
2021/03/06 09:52:02;;;;;;;5.30;2.93;;;;;;;4.32;60.97;101685.45;631718;225;23830;-77
2021/03/06 09:54:35;;;;;;;3.50;3.20;;;;;;;4.65;60.51;101677.50;630160;226;33006;-78
2021/03/06 09:57:05;;;;;;;6.93;3.73;;;;;;;4.83;61.70;101672.39;643513;221;24116;-75
2021/03/06 09:59:31;;;;;;;5.40;3.77;;;;;;;4.77;59.46;101662.73;639980;221;32657;-76
2021/03/06 10:02:04;;;;;;;3.67;3.43;;;;;;;4.80;58.17;101655.79;638886;222;23775;-79
2021/03/06 10:04:32;;;;;;;3.53;3.07;;;;;;;5.19;58.69;101660.30;638875;221;24959;-79
2021/03/06 10:07:00;;;;;;;4.57;3.40;;;;;;;5.46;58.67;101650.36;636738;221;32708;-76
2021/03/06 10:09:29;;;;;;;4.60;3.60;;;;;;;5.70;59.13;101656.05;642712;221;24889;-75
2021/03/06 10:11:57;;;;;;;3.87;3.23;;;;;;;5.34;57.37;101647.94;632802;225;24937;-77
2021/03/06 10:14:25;;;;;;;3.40;3.00;;;;;;;5.20;57.90;101644.37;643133;221;24939;-77
2021/03/06 10:16:52;;;;;;;3.30;3.00;;;;;;;5.21;56.67;101641.74;646225;221;24869;-77
2021/03/06 10:19:20;;;;;;;3.80;3.40;;;;;;;5.35;54.34;101634.61;641576;220;24860;-78
2021/03/06 10:21:57;;;;;;;3.53;2.90;;;;;;;5.42;55.65;101632.09;643120;219;24903;-78
2021/03/06 10:24:25;;;;;;;5.53;3.57;;;;;;;5.20;56.60;101634.88;646883;220;27082;-78
2021/03/06 10:26:56;;;;;;;8.00;3.30;;;;;;;5.38;55.14;101616.39;643184;221;27129;-78
2021/03/06 10:29:24;;;;;;;3.47;3.00;;;;;;;5.41;55.31;101614.95;642022;220;24867;-75
2021/03/06 10:31:57;;;;;;;3.57;3.07;;;;;;;5.93;55.04;101614.42;644738;221;24906;-75
2021/03/06 10:34:26;;;;;;;3.70;2.70;;;;;;;6.10;54.35;101613.98;633991;225;24993;-75
2021/03/06 10:37:05;;;;;;;3.60;2.97;;;;;;;6.09;53.96;101612.32;630539;225;24922;-76
2021/03/06 10:39:33;;;;;;;4.10;3.13;;;;;;;5.74;54.69;101616.70;644762;220;24918;-75
2021/03/06 10:42:01;;;;;;;3.30;2.97;;;;;;;5.63;53.52;101609.08;650427;221;27056;-75
2021/03/06 10:44:40;;;;;;;3.63;3.33;;;;;;;5.88;54.28;101612.48;631613;225;28136;-76
2021/03/06 10:47:08;;;;;;;3.80;3.37;;;;;;;5.94;54.34;101614.80;630866;225;32777;-75
2021/03/06 10:49:36;;;;;;;4.37;3.97;;;;;;;6.03;54.64;101615.21;635137;225;25045;-75
2021/03/06 10:52:05;;;;;;;3.75;3.10;;;;;;;5.88;53.97;101612.48;633781;221;32693;-75
2021/03/06 10:54:48;;;;;;;3.97;3.57;;;;;;;6.06;56.33;101613.33;637686;224;23906;-75
2021/03/06 10:57:16;;;;;;;4.47;3.90;;;;;;;6.32;54.95;101617.52;634247;223;32936;-75
2021/03/06 10:59:44;;;;;;;5.50;5.00;;;;;;;5.88;56.63;101621.52;649825;220;23766;-75
2021/03/06 11:02:25;;;;;;;5.00;3.77;;;;;;;5.93;55.83;101616.17;646831;221;24923;-75
2021/03/06 11:04:53;;;;;;;4.20;3.23;;;;;;;6.33;54.06;101620.02;634566;223;24906;-76
2021/03/06 11:07:27;;;;;;;6.07;3.97;;;;;;;6.26;54.51;101617.41;630265;225;24961;-75
2021/03/06 11:09:57;;;;;;;5.03;3.83;;;;;;;6.19;54.50;101618.64;630468;225;24907;-74
2021/03/06 11:12:28;;;;;;;4.33;3.40;;;;;;;6.38;53.45;101611.58;645132;221;29179;-75
2021/03/06 11:15:09;;;;;;;5.10;3.80;;;;;;;6.59;54.74;101613.44;639621;221;24996;-75
2021/03/06 11:17:37;;;;;;;4.07;3.30;;;;;;;6.50;58.29;101621.25;644076;222;24898;-75
2021/03/06 11:20:06;;;;;;;5.63;3.33;;;;;;;5.80;56.80;101630.60;636969;225;24915;-74
2021/03/06 11:22:34;;;;;;;6.83;3.20;;;;;;;5.83;55.86;101623.98;635510;225;25127;-76
2021/03/06 11:25:02;;;;;;;3.20;2.70;;;;;;;5.94;57.06;101619.97;640678;220;43417;-76
2021/03/06 11:27:30;;;;;;;4.20;3.80;;;;;;;6.15;56.89;101619.27;630866;225;23804;-75
2021/03/06 11:29:58;;;;;;;3.30;3.00;;;;;;;6.23;53.25;101608.54;629336;226;24933;-75
2021/03/06 11:32:26;;;;;;;3.20;2.70;;;;;;;6.41;52.91;101592.48;627655;226;24956;-75
2021/03/06 11:34:53;;;;;;;6.67;3.70;;;;;;;6.62;52.75;101591.77;634774;224;24955;-75
2021/03/06 11:37:21;;;;;;;8.53;3.90;;;;;;;6.82;53.22;101582.42;642154;220;24938;-74
2021/03/06 11:39:49;;;;;;;4.13;2.53;;;;;;;6.66;50.13;101577.75;639647;223;24896;-75